createdAt,value
2023-05-10T00:00:04.148Z,1.27
2023-05-10T00:01:04.270Z,0.82
2023-05-10T00:02:04.606Z,0.82
2023-05-10T00:03:03.927Z,0.96
2023-05-10T00:04:04.213Z,1.5
2023-05-10T00:05:04.484Z,0.81
2023-05-10T00:06:04.416Z,2.18
2023-05-10T00:07:04.738Z,0.85
2023-05-10T00:08:04.066Z,1.17
2023-05-10T00:09:04.413Z,0.98
2023-05-10T00:11:04.060Z,0.96
2023-05-10T00:12:02.996Z,1.09
2023-05-10T00:13:04.049Z,1.12
2023-05-10T00:14:04.262Z,0.72
2023-05-10T00:15:04.527Z,0.95
2023-05-10T00:16:04.734Z,1.68
2023-05-10T00:17:03.882Z,0.82
2023-05-10T00:18:04.201Z,0.75
2023-05-10T00:19:04.372Z,1.05
2023-05-10T00:20:04.541Z,1.03
2023-05-10T00:21:04.274Z,0.94
2023-05-10T00:22:04.678Z,0.76
2023-05-10T00:23:04.780Z,1.22
2023-05-10T00:28:04.109Z,1.18
2023-05-10T00:29:04.309Z,1.14
2023-05-10T00:30:04.596Z,1.12
2023-05-10T00:31:04.590Z,0.82
2023-05-10T00:32:04.732Z,0.79
2023-05-10T00:33:03.898Z,1.25
2023-05-10T00:34:04.230Z,1.28
2023-05-10T00:35:04.286Z,1.35
2023-05-10T00:36:04.546Z,0.68
2023-05-10T00:37:04.568Z,0.86
2023-05-10T00:38:03.438Z,0.86
2023-05-10T00:39:04.792Z,1.11
2023-05-10T00:40:03.916Z,1
2023-05-10T00:42:04.531Z,1.02
2023-05-10T00:43:04.942Z,1.07
2023-05-10T00:44:03.899Z,2.01
2023-05-10T00:45:04.411Z,1.06
2023-05-10T00:46:04.618Z,0.79
2023-05-10T00:47:04.804Z,0.81
2023-05-10T00:48:03.882Z,1.21
2023-05-10T00:49:03.862Z,1.11
2023-05-10T00:50:04.472Z,1.01
2023-05-10T00:51:04.710Z,1
2023-05-10T00:52:03.909Z,1.25
2023-05-10T00:53:03.983Z,1.08
2023-05-10T00:54:04.394Z,1.25
2023-05-10T00:55:04.610Z,1.49
2023-05-10T00:56:03.834Z,1.89
2023-05-10T00:57:04.386Z,0.75
2023-05-10T00:58:04.547Z,1.01
2023-05-10T00:59:04.918Z,1.09
2023-05-10T01:00:03.889Z,1.09
2023-05-10T01:01:04.279Z,0.71
2023-05-10T01:02:04.495Z,1.25
2023-05-10T01:03:04.841Z,1.02
2023-05-10T01:05:04.098Z,1.21
2023-05-10T01:06:04.698Z,0.62
2023-05-10T01:07:04.068Z,1.02
2023-05-10T01:08:04.338Z,0.94
2023-05-10T01:09:04.513Z,1.45
2023-05-10T01:10:03.900Z,1.61
2023-05-10T01:11:04.074Z,1.44
2023-05-10T01:12:04.775Z,1.55
2023-05-10T01:13:04.680Z,0.85
2023-05-10T01:18:04.817Z,1.59
2023-05-10T01:19:04.975Z,1.59
2023-05-10T01:20:04.456Z,1.26
2023-05-10T01:21:04.532Z,1.11
2023-05-10T01:22:04.817Z,1.58
2023-05-10T01:23:03.995Z,1.99
2023-05-10T01:24:04.321Z,1.41
2023-05-10T01:25:04.701Z,1.49
2023-05-10T01:26:04.752Z,1.27
2023-05-10T01:27:03.886Z,2.07
2023-05-10T01:28:04.281Z,1.22
2023-05-10T01:29:04.571Z,1.11
2023-05-10T01:30:17.777Z,1.09
2023-05-10T01:31:04.088Z,1.28
2023-05-10T01:32:04.377Z,1.38
2023-05-10T01:33:04.448Z,1.21
2023-05-10T01:34:04.532Z,1.62
2023-05-10T01:35:04.881Z,1.41
2023-05-10T01:36:03.930Z,1.49
2023-05-10T01:38:04.287Z,1.53
2023-05-10T01:40:04.549Z,1.11
2023-05-10T01:41:03.948Z,0.89
2023-05-10T01:42:04.215Z,1.1
2023-05-10T01:43:04.237Z,0.94
2023-05-10T01:44:04.770Z,1.69
2023-05-10T01:45:04.030Z,0.91
2023-05-10T01:46:04.115Z,1.12
2023-05-10T01:47:04.568Z,1.25
2023-05-10T01:48:04.902Z,0.94
2023-05-10T01:52:04.043Z,1.11
2023-05-10T01:53:04.458Z,1.25
2023-05-10T01:54:04.519Z,1.05
2023-05-10T01:55:04.930Z,1.26
2023-05-10T01:56:04.259Z,1.26
2023-05-10T01:57:04.411Z,0.93
2023-05-10T01:58:04.830Z,0.93
2023-05-10T01:59:04.837Z,1.14
2023-05-10T02:00:04.181Z,0.92
2023-05-10T02:01:05.068Z,1.36
2023-05-10T02:02:04.640Z,0.71
2023-05-10T02:05:04.539Z,1.01
2023-05-10T02:06:03.852Z,1.27
2023-05-10T02:07:04.187Z,0.93
2023-05-10T02:08:04.555Z,1.01
2023-05-10T02:09:03.649Z,0.71
2023-05-10T02:10:04.164Z,0.59
2023-05-10T02:11:04.227Z,1.6
2023-05-10T02:12:04.356Z,1.44
2023-05-10T02:13:04.731Z,1.14
2023-05-10T02:14:04.052Z,0.62
2023-05-10T02:15:04.286Z,0.67
2023-05-10T02:16:04.204Z,0.82
2023-05-10T02:17:04.261Z,0.76
2023-05-10T02:18:05.086Z,1.36
2023-05-10T02:19:04.004Z,1.08
2023-05-10T02:20:04.053Z,0.92
2023-05-10T02:21:04.298Z,1.21
2023-05-10T02:22:04.551Z,0.42
2023-05-10T02:23:04.331Z,0.89
2023-05-10T02:24:04.587Z,0.76
2023-05-10T02:25:04.947Z,1.11
2023-05-10T02:26:04.170Z,1.24
2023-05-10T02:27:04.332Z,0.88
2023-05-10T02:28:04.650Z,0.76
2023-05-10T02:29:03.990Z,0.59
2023-05-10T02:33:03.879Z,1.39
2023-05-10T02:34:04.003Z,0.99
2023-05-10T02:35:04.562Z,0.76
2023-05-10T02:36:04.417Z,1.04
2023-05-10T02:37:04.690Z,1.52
2023-05-10T02:38:04.979Z,1.45
2023-05-10T02:39:04.292Z,0.79
2023-05-10T02:40:04.449Z,1.31
2023-05-10T02:41:04.649Z,0.85
2023-05-10T02:42:04.584Z,1.32
2023-05-10T02:46:04.209Z,0.99
2023-05-10T02:47:04.296Z,0.83
2023-05-10T02:48:04.744Z,0.72
2023-05-10T02:49:04.061Z,0.59
2023-05-10T02:50:04.147Z,0.94
2023-05-10T02:51:04.500Z,1.02
2023-05-10T02:52:04.826Z,0.86
2023-05-10T02:53:03.749Z,0.92
2023-05-10T02:54:04.421Z,0.99
2023-05-10T02:59:03.488Z,1.08
2023-05-10T03:00:05.001Z,0.79
2023-05-10T03:01:04.079Z,0.66
2023-05-10T03:02:04.291Z,0.56
2023-05-10T03:03:04.612Z,1.07
2023-05-10T03:04:04.760Z,1.02
2023-05-10T03:05:03.894Z,0.79
2023-05-10T03:06:04.888Z,0.69
2023-05-10T03:07:03.911Z,0.84
2023-05-10T03:08:04.741Z,0.84
2023-05-10T03:09:04.118Z,0.7
2023-05-10T03:10:04.417Z,1.23
2023-05-10T03:11:04.711Z,1.02
2023-05-10T03:12:04.074Z,0.76
2023-05-10T03:13:04.319Z,0.94
2023-05-10T03:14:04.543Z,0.9
2023-05-10T03:15:04.880Z,0.59
2023-05-10T03:16:04.056Z,0.61
2023-05-10T03:17:04.097Z,0.85
2023-05-10T03:18:04.421Z,0.58
2023-05-10T03:19:04.505Z,0.68
2023-05-10T03:20:03.836Z,1.04
2023-05-10T03:21:04.181Z,0.94
2023-05-10T03:22:04.092Z,0.6
2023-05-10T03:24:04.316Z,0.68
2023-05-10T03:25:04.533Z,0.94
2023-05-10T03:26:04.725Z,0.86
2023-05-10T03:27:05.018Z,1.22
2023-05-10T03:28:04.237Z,0.85
2023-05-10T03:29:04.347Z,1.09
2023-05-10T03:30:04.657Z,0.82
2023-05-10T03:31:04.861Z,0.5
2023-05-10T03:33:04.243Z,0.56
2023-05-10T03:34:04.422Z,0.67
2023-05-10T03:35:04.631Z,0.78
2023-05-10T03:36:04.187Z,0.32
2023-05-10T03:37:04.372Z,0.48
2023-05-10T03:38:04.757Z,0.72
2023-05-10T03:41:04.055Z,0.4
2023-05-10T03:42:04.475Z,0.61
2023-05-10T03:43:04.546Z,0.41
2023-05-10T03:44:03.921Z,0.83
2023-05-10T03:45:04.082Z,0.61
2023-05-10T03:46:04.624Z,0.41
2023-05-10T03:47:04.920Z,0.41
2023-05-10T03:48:04.308Z,0.34
2023-05-10T03:50:04.715Z,0.38
2023-05-10T03:51:04.764Z,0.53
2023-05-10T03:52:04.726Z,0.52
2023-05-10T03:53:04.006Z,0.51
2023-05-10T03:54:04.245Z,0.69
2023-05-10T03:58:03.960Z,0.39
2023-05-10T03:59:04.378Z,0.64
2023-05-10T04:00:04.449Z,0.65
2023-05-10T04:01:04.578Z,0.46
2023-05-10T04:02:04.855Z,0.76
2023-05-10T04:03:03.921Z,1.05
2023-05-10T04:04:04.324Z,0.82
2023-05-10T04:06:04.495Z,0.56
2023-05-10T04:07:04.566Z,0.46
2023-05-10T04:08:04.700Z,0.48
2023-05-10T04:09:04.101Z,0.51
2023-05-10T04:10:04.410Z,0.46
2023-05-10T04:11:04.485Z,0.35
2023-05-10T04:12:04.221Z,0.41
2023-05-10T04:13:04.486Z,0.32
2023-05-10T04:14:04.795Z,0.61
2023-05-10T04:15:03.963Z,0.73
2023-05-10T04:18:04.424Z,0.51
2023-05-10T04:20:04.203Z,0.96
2023-05-10T04:21:04.741Z,0.36
2023-05-10T04:22:04.815Z,0.56
2023-05-10T04:23:04.725Z,0.56
2023-05-10T04:24:04.027Z,0.59
2023-05-10T04:25:04.548Z,0.34
2023-05-10T04:26:04.328Z,0.29
2023-05-10T04:27:04.697Z,0.43
2023-05-10T04:28:03.668Z,0.5
2023-05-10T04:29:04.362Z,0.59
2023-05-10T04:30:04.776Z,0.26
2023-05-10T04:31:04.798Z,0.33
2023-05-10T04:32:03.850Z,0.67
2023-05-10T04:33:04.405Z,0.41
2023-05-10T04:34:04.582Z,0.39
2023-05-10T04:35:04.756Z,0.51
2023-05-10T04:36:04.038Z,0.69
2023-05-10T04:37:04.344Z,0.43
2023-05-10T04:38:04.708Z,0.56
2023-05-10T04:39:04.733Z,1.1
2023-05-10T04:40:04.120Z,0.89
2023-05-10T04:41:04.350Z,1.01
2023-05-10T04:42:04.625Z,0.29
2023-05-10T04:43:03.741Z,0.33
2023-05-10T04:44:04.176Z,0.39
2023-05-10T04:45:04.483Z,0.44
2023-05-10T04:46:03.806Z,0.58
2023-05-10T04:47:04.252Z,0.55
2023-05-10T04:48:04.445Z,0.88
2023-05-10T04:49:04.699Z,0.24
2023-05-10T04:50:03.850Z,0.39
2023-05-10T04:52:04.458Z,0.82
2023-05-10T04:53:04.298Z,0.29
2023-05-10T04:56:04.375Z,0.44
2023-05-10T04:57:04.603Z,0.63
2023-05-10T04:58:04.134Z,0.65
2023-05-10T04:59:04.463Z,0.4
2023-05-10T05:00:04.704Z,0.55
2023-05-10T05:01:04.041Z,0.48
2023-05-10T05:02:04.352Z,0.46
2023-05-10T05:03:04.752Z,0.26
2023-05-10T05:04:03.829Z,0.26
2023-05-10T05:05:04.395Z,0.49
2023-05-10T05:06:04.561Z,0.29
2023-05-10T05:07:04.760Z,0.42
2023-05-10T05:12:03.621Z,0.75
2023-05-10T05:13:04.184Z,0.66
2023-05-10T05:14:04.322Z,0.35
2023-05-10T05:15:04.388Z,0.49
2023-05-10T05:16:04.127Z,0.32
2023-05-10T05:18:05.116Z,1.03
2023-05-10T05:19:04.655Z,0.82
2023-05-10T05:21:04.501Z,0.31
2023-05-10T05:22:04.816Z,0.62
2023-05-10T05:23:03.938Z,0.53
2023-05-10T05:24:04.527Z,0.35
2023-05-10T05:25:04.761Z,0.48
2023-05-10T05:26:03.918Z,0.45
2023-05-10T05:27:04.168Z,0.31
2023-05-10T05:28:04.431Z,0.26
2023-05-10T05:29:04.306Z,0.34
2023-05-10T05:33:04.590Z,0.43
2023-05-10T05:34:04.072Z,0.37
2023-05-10T05:35:04.321Z,0.49
2023-05-10T05:36:04.297Z,0.49
2023-05-10T05:37:04.314Z,0.36
2023-05-10T05:38:04.817Z,0.58
2023-05-10T05:39:03.850Z,0.4
2023-05-10T05:40:04.485Z,0.84
2023-05-10T05:41:04.628Z,0.45
2023-05-10T05:42:04.832Z,0.27
2023-05-10T05:43:04.149Z,0.53
2023-05-10T05:44:04.491Z,0.46
2023-05-10T05:45:04.790Z,0.62
2023-05-10T05:46:04.824Z,0.39
2023-05-10T05:50:04.641Z,0.24
2023-05-10T05:51:05.838Z,0.38
2023-05-10T05:52:04.151Z,0.2
2023-05-10T05:53:04.473Z,0.31
2023-05-10T05:54:04.351Z,0.35
2023-05-10T05:55:04.590Z,0.2
2023-05-10T05:56:04.638Z,0.36
2023-05-10T06:00:04.821Z,0.24
2023-05-10T06:01:04.624Z,0.19
2023-05-10T06:03:04.360Z,0.37
2023-05-10T06:04:05.094Z,0.3
2023-05-10T06:05:04.056Z,0.3
2023-05-10T06:06:04.509Z,0.3
2023-05-10T06:07:04.819Z,0.2
2023-05-10T06:08:03.838Z,0.26
2023-05-10T06:09:04.200Z,0.2
2023-05-10T06:10:04.809Z,0.29
2023-05-10T06:14:03.925Z,0.2
2023-05-10T06:15:04.274Z,0.28
2023-05-10T06:16:04.610Z,0.3
2023-05-10T06:17:05.034Z,0.24
2023-05-10T06:18:04.200Z,0.2
2023-05-10T06:19:04.337Z,0.25
2023-05-10T06:20:04.004Z,0.41
2023-05-10T06:21:04.883Z,0.21
2023-05-10T06:22:04.048Z,0.3
2023-05-10T06:23:04.333Z,0.21
2023-05-10T06:24:04.624Z,0.25
2023-05-10T06:25:03.998Z,0.45
2023-05-10T06:26:04.162Z,0.2
2023-05-10T06:27:04.571Z,0.29
2023-05-10T06:28:04.685Z,0.22
2023-05-10T06:29:04.852Z,0.31
2023-05-10T06:30:12.189Z,0.29
2023-05-10T06:31:04.550Z,0.24
2023-05-10T06:32:04.716Z,0.24
2023-05-10T06:33:04.157Z,0.42
2023-05-10T06:34:04.289Z,0.2
2023-05-10T06:35:04.475Z,0.2
2023-05-10T06:36:04.577Z,0.28
2023-05-10T06:37:03.973Z,0.35
2023-05-10T06:38:04.105Z,0.25
2023-05-10T06:40:04.345Z,0.25
2023-05-10T06:41:04.552Z,0.2
2023-05-10T06:42:04.072Z,0.26
2023-05-10T06:46:04.628Z,0.4
2023-05-10T06:49:04.412Z,0.25
2023-05-10T06:51:04.319Z,0.3
2023-05-10T06:52:02.902Z,0.47
2023-05-10T06:53:04.699Z,0.35
2023-05-10T06:54:03.922Z,0.62
2023-05-10T06:55:04.016Z,0.36
2023-05-10T06:56:04.437Z,0.52
2023-05-10T06:57:04.801Z,0.35
2023-05-10T06:58:04.175Z,0.36
2023-05-10T06:59:04.492Z,0.38
2023-05-10T07:00:03.900Z,0.39
2023-05-10T07:01:04.360Z,0.32
2023-05-10T07:05:04.039Z,0.4
2023-05-10T07:06:04.398Z,0.31
2023-05-10T07:07:03.991Z,0.35
2023-05-10T07:08:04.268Z,0.5
2023-05-10T07:09:04.901Z,0.61
2023-05-10T07:10:04.353Z,0.2
2023-05-10T07:11:04.419Z,0.44
2023-05-10T07:12:04.716Z,0.52
2023-05-10T07:14:04.037Z,0.28
2023-05-10T07:15:04.094Z,0.28
2023-05-10T07:16:04.393Z,0.29
2023-05-10T07:17:04.613Z,0.31
2023-05-10T07:18:04.979Z,0.3
2023-05-10T07:19:03.928Z,0.3
2023-05-10T07:20:04.250Z,0.42
2023-05-10T07:21:04.745Z,0.52
2023-05-10T07:26:03.983Z,0.38
2023-05-10T07:27:04.669Z,0.34
2023-05-10T07:28:03.923Z,0.38
2023-05-10T07:29:04.509Z,0.28
2023-05-10T07:30:04.447Z,0.31
2023-05-10T07:31:04.630Z,0.67
2023-05-10T07:35:03.810Z,0.3
2023-05-10T07:37:04.164Z,0.24
2023-05-10T07:38:04.527Z,0.45
2023-05-10T07:39:04.843Z,0.39
2023-05-10T07:40:03.957Z,0.3
2023-05-10T07:41:04.542Z,0.42
2023-05-10T07:42:04.477Z,0.39
2023-05-10T07:43:04.719Z,0.5
2023-05-10T07:46:04.048Z,0.28
2023-05-10T07:47:04.190Z,0.6
2023-05-10T07:48:04.207Z,0.43
2023-05-10T07:49:04.393Z,0.51
2023-05-10T07:50:04.676Z,0.4
2023-05-10T07:51:03.952Z,0.39
2023-05-10T07:52:04.123Z,0.58
2023-05-10T07:53:04.874Z,0.72
2023-05-10T07:54:04.158Z,0.43
2023-05-10T07:55:04.643Z,0.48
2023-05-10T07:59:04.288Z,0.27
2023-05-10T08:00:04.469Z,0.49
2023-05-10T08:01:04.057Z,0.52
2023-05-10T08:02:04.321Z,0.52
2023-05-10T08:03:04.211Z,0.68
2023-05-10T08:04:05.263Z,0.48
2023-05-10T08:05:04.146Z,0.41
2023-05-10T08:07:04.172Z,0.61
2023-05-10T08:08:04.214Z,0.6
2023-05-10T08:09:03.949Z,0.88
2023-05-10T08:10:04.426Z,0.52
2023-05-10T08:11:04.770Z,0.52
2023-05-10T08:12:03.916Z,0.43
2023-05-10T08:13:04.119Z,0.44
2023-05-10T08:14:04.397Z,0.57
2023-05-10T08:15:04.755Z,0.55
2023-05-10T08:16:04.584Z,0.46
2023-05-10T08:18:04.683Z,1.06
2023-05-10T08:19:03.917Z,0.63
2023-05-10T08:20:04.161Z,0.59
2023-05-10T08:21:04.565Z,0.77
2023-05-10T08:22:04.354Z,0.51
2023-05-10T08:23:04.565Z,0.53
2023-05-10T08:24:03.881Z,0.48
2023-05-10T08:25:03.945Z,0.84
2023-05-10T08:26:03.840Z,0.46
2023-05-10T08:27:04.414Z,0.38
2023-05-10T08:28:03.747Z,0.44
2023-05-10T08:29:04.154Z,0.62
2023-05-10T08:30:04.568Z,0.73
2023-05-10T08:31:04.528Z,0.76
2023-05-10T08:32:04.700Z,0.54
2023-05-10T08:34:04.499Z,0.62
2023-05-10T08:35:04.782Z,0.77
2023-05-10T08:36:04.188Z,0.6
2023-05-10T08:37:04.777Z,0.73
2023-05-10T08:38:04.102Z,1.39
2023-05-10T08:39:04.307Z,0.54
2023-05-10T08:40:04.523Z,0.71
2023-05-10T08:41:04.821Z,0.61
2023-05-10T08:42:03.963Z,0.57
2023-05-10T08:43:04.153Z,0.53
2023-05-10T08:44:04.283Z,0.53
2023-05-10T08:45:04.657Z,0.88
2023-05-10T08:46:04.829Z,0.71
2023-05-10T08:49:04.525Z,0.69
2023-05-10T08:50:04.213Z,0.53
2023-05-10T08:51:04.594Z,0.48
2023-05-10T08:55:03.860Z,0.51
2023-05-10T08:56:03.954Z,0.44
2023-05-10T08:57:04.109Z,0.79
2023-05-10T08:58:04.846Z,0.65
2023-05-10T08:59:04.226Z,0.58
2023-05-10T09:00:04.666Z,0.42
2023-05-10T09:01:04.817Z,0.36
2023-05-10T09:02:03.951Z,0.61
2023-05-10T09:03:04.235Z,0.52
2023-05-10T09:04:04.808Z,0.46
2023-05-10T09:05:04.853Z,0.84
2023-05-10T09:06:03.908Z,0.44
2023-05-10T09:07:04.472Z,0.62
2023-05-10T09:08:04.606Z,0.54
2023-05-10T09:09:03.814Z,0.59
2023-05-10T09:10:04.257Z,0.56
2023-05-10T09:11:04.640Z,0.49
2023-05-10T09:12:03.960Z,0.72
2023-05-10T09:13:03.966Z,0.44
2023-05-10T09:14:04.592Z,0.63
2023-05-10T09:16:13.848Z,0.65
2023-05-10T09:17:04.563Z,0.68
2023-05-10T09:18:04.536Z,0.56
2023-05-10T09:19:04.804Z,0.35
2023-05-10T09:20:03.952Z,0.34
2023-05-10T09:23:03.971Z,0.34
2023-05-10T09:24:04.428Z,0.34
2023-05-10T09:25:04.677Z,0.93
2023-05-10T09:26:03.877Z,0.69
2023-05-10T09:27:04.430Z,0.34
2023-05-10T09:28:04.745Z,0.88
2023-05-10T09:29:04.956Z,0.54
2023-05-10T09:30:03.946Z,0.56
2023-05-10T09:31:04.445Z,0.35
2023-05-10T09:32:04.749Z,0.5
2023-05-10T09:33:03.750Z,0.69
2023-05-10T09:34:04.350Z,0.42
2023-05-10T09:35:04.708Z,0.35
2023-05-10T09:36:04.888Z,0.38
2023-05-10T09:37:03.987Z,0.37
2023-05-10T09:38:04.338Z,0.42
2023-05-10T09:39:04.623Z,0.44
2023-05-10T09:40:03.856Z,0.48
2023-05-10T09:41:04.044Z,0.71
2023-05-10T09:42:04.433Z,0.53
2023-05-10T09:43:04.396Z,0.61
2023-05-10T09:48:04.084Z,0.64
2023-05-10T09:49:04.218Z,0.58
2023-05-10T09:50:03.980Z,0.44
2023-05-10T09:51:04.494Z,0.95
2023-05-10T09:52:04.975Z,0.55
2023-05-10T09:53:04.054Z,0.5
2023-05-10T09:54:04.226Z,0.4
2023-05-10T09:55:04.159Z,0.54
2023-05-10T09:56:04.827Z,0.43
2023-05-10T10:00:03.865Z,0.74
2023-05-10T10:01:04.173Z,0.52
2023-05-10T10:02:04.796Z,0.38
2023-05-10T10:03:04.888Z,0.42
2023-05-10T10:04:04.012Z,0.53
2023-05-10T10:05:04.458Z,0.46
2023-05-10T10:06:04.381Z,0.41
2023-05-10T10:07:04.496Z,0.4
2023-05-10T10:08:04.689Z,0.22
2023-05-10T10:09:04.712Z,0.36
2023-05-10T10:10:04.049Z,0.38
2023-05-10T10:11:04.223Z,0.88
2023-05-10T10:12:04.464Z,0.37
2023-05-10T10:13:04.913Z,0.25
2023-05-10T10:14:03.939Z,0.56
2023-05-10T10:15:04.162Z,0.75
2023-05-10T10:16:04.715Z,0.42
2023-05-10T10:17:09.960Z,0.37
2023-05-10T10:18:04.099Z,0.52
2023-05-10T10:19:04.807Z,0.36
2023-05-10T10:20:03.373Z,0.44
2023-05-10T10:21:04.010Z,0.36
2023-05-10T10:22:04.406Z,0.59
2023-05-10T10:23:04.449Z,0.41
2023-05-10T10:24:04.804Z,0.26
2023-05-10T10:25:04.025Z,0.54
2023-05-10T10:26:04.260Z,0.41
2023-05-10T10:27:04.449Z,0.45
2023-05-10T10:28:04.669Z,0.2
2023-05-10T10:29:04.401Z,0.26
2023-05-10T10:30:04.580Z,0.3
2023-05-10T10:31:04.912Z,0.2
2023-05-10T10:32:04.244Z,0.26
2023-05-10T10:33:16.806Z,0.26
2023-05-10T10:34:04.445Z,0.2
2023-05-10T10:35:04.630Z,0.45
2023-05-10T10:36:04.861Z,0.39
2023-05-10T10:37:03.880Z,0.54
2023-05-10T10:38:04.142Z,0.66
2023-05-10T10:39:04.480Z,0.29
2023-05-10T10:40:04.484Z,0.18
2023-05-10T10:42:04.273Z,0.26
2023-05-10T10:43:04.029Z,0.27
2023-05-10T10:44:04.332Z,0.39
2023-05-10T10:45:04.777Z,0.36
2023-05-10T10:46:03.905Z,0.36
2023-05-10T10:47:04.355Z,0.34
2023-05-10T10:48:04.751Z,0.22
2023-05-10T10:49:03.894Z,0.22
2023-05-10T10:50:04.424Z,0.28
2023-05-10T10:51:04.475Z,0.41
2023-05-10T10:52:04.623Z,0.16
2023-05-10T10:53:04.372Z,0.38
2023-05-10T10:54:04.480Z,0.38
2023-05-10T10:55:03.957Z,1.28
2023-05-10T10:56:04.046Z,0.39
2023-05-10T10:57:04.191Z,0.38
2023-05-10T10:58:04.560Z,0.59
2023-05-10T10:59:04.869Z,0.44
2023-05-10T11:00:04.036Z,0.39
2023-05-10T11:01:04.408Z,0.28
2023-05-10T11:02:04.634Z,0.41
2023-05-10T11:03:04.864Z,0.45
2023-05-10T11:04:04.151Z,0.68
2023-05-10T11:05:04.478Z,0.96
2023-05-10T11:06:04.610Z,0.5
2023-05-10T11:07:04.811Z,0.58
2023-05-10T11:10:03.717Z,0.67
2023-05-10T11:11:03.891Z,0.67
2023-05-10T11:12:04.250Z,0.33
2023-05-10T11:13:03.438Z,0.33
2023-05-10T11:14:04.305Z,0.39
2023-05-10T11:15:04.624Z,0.47
2023-05-10T11:16:04.339Z,0.39
2023-05-10T11:17:04.568Z,0.84
2023-05-10T11:21:04.794Z,0.47
2023-05-10T11:22:04.020Z,0.44
2023-05-10T11:23:04.261Z,0.3
2023-05-10T11:24:04.618Z,0.45
2023-05-10T11:25:04.751Z,0.41
2023-05-10T11:26:04.387Z,0.33
2023-05-10T11:27:04.698Z,0.65
2023-05-10T11:28:03.803Z,0.31
2023-05-10T11:29:03.961Z,0.4
2023-05-10T11:30:05.083Z,0.42
2023-05-10T11:33:04.313Z,0.43
2023-05-10T11:34:03.097Z,0.55
2023-05-10T11:35:04.368Z,0.3
2023-05-10T11:36:04.147Z,0.2
2023-05-10T11:38:04.310Z,0.41
2023-05-10T11:39:04.490Z,0.47
2023-05-10T11:40:04.923Z,0.28
2023-05-10T11:41:04.468Z,0.23
2023-05-10T11:42:04.725Z,0.54
2023-05-10T11:46:04.768Z,0.59
2023-05-10T11:47:04.866Z,0.31
2023-05-10T11:48:04.220Z,0.31
2023-05-10T11:49:04.524Z,0.34
2023-05-10T11:50:04.642Z,0.23
2023-05-10T11:51:03.948Z,0.23
2023-05-10T11:52:04.123Z,0.52
2023-05-10T11:53:04.483Z,0.65
2023-05-10T11:54:03.778Z,0.52
2023-05-10T11:55:03.934Z,0.65
2023-05-10T11:56:04.210Z,0.53
2023-05-10T11:57:04.271Z,0.38
2023-05-10T11:58:04.579Z,0.33
2023-05-10T11:59:04.709Z,0.36
2023-05-10T12:00:04.001Z,0.34
2023-05-10T12:01:04.192Z,0.28
2023-05-10T12:02:04.668Z,0.53
2023-05-10T12:03:04.684Z,0.3
2023-05-10T12:06:04.610Z,0.32
2023-05-10T12:07:04.795Z,0.36
2023-05-10T12:08:03.908Z,0.26
2023-05-10T12:09:04.056Z,0.29
2023-05-10T12:10:04.342Z,0.3
2023-05-10T12:11:04.388Z,0.49
2023-05-10T12:12:04.865Z,0.28
2023-05-10T12:13:03.965Z,0.35
2023-05-10T12:14:04.203Z,0.42
2023-05-10T12:15:04.244Z,0.38
2023-05-10T12:16:04.726Z,0.3
2023-05-10T12:17:03.864Z,0.45
2023-05-10T12:18:04.023Z,0.51
2023-05-10T12:19:04.252Z,0.3
2023-05-10T12:21:03.060Z,0.34
2023-05-10T12:22:04.143Z,0.22
2023-05-10T12:23:04.239Z,0.52
2023-05-10T12:24:04.563Z,0.45
2023-05-10T12:25:04.097Z,0.56
2023-05-10T12:26:04.377Z,0.36
2023-05-10T12:27:04.785Z,0.38
2023-05-10T12:28:03.983Z,0.63
2023-05-10T12:29:04.276Z,0.66
2023-05-10T12:30:04.557Z,0.28
2023-05-10T12:31:04.722Z,0.84
2023-05-10T12:32:03.896Z,0.28
2023-05-10T12:33:04.287Z,0.2
2023-05-10T12:34:04.349Z,0.46
2023-05-10T12:35:04.694Z,0.61
2023-05-10T12:36:04.019Z,0.69
2023-05-10T12:37:04.388Z,0.28
2023-05-10T12:38:04.557Z,0.69
2023-05-10T12:39:04.690Z,0.36
2023-05-10T12:40:04.172Z,0.4
2023-05-10T12:43:03.938Z,0.56
2023-05-10T12:45:04.540Z,0.73
2023-05-10T12:46:04.818Z,0.61
2023-05-10T12:49:11.498Z,0.59
2023-05-10T12:50:04.086Z,0.72
2023-05-10T12:51:04.307Z,0.39
2023-05-10T12:52:04.572Z,0.37
2023-05-10T12:53:04.587Z,0.37
2023-05-10T12:54:04.015Z,0.58
2023-05-10T12:55:04.201Z,0.58
2023-05-10T12:56:04.478Z,0.26
2023-05-10T12:57:04.644Z,0.41
2023-05-10T12:58:03.826Z,0.23
2023-05-10T12:59:04.423Z,0.32
2023-05-10T13:00:04.777Z,0.35
2023-05-10T13:01:04.144Z,0.57
2023-05-10T13:02:04.497Z,0.26
2023-05-10T13:03:04.943Z,0.28
2023-05-10T13:04:04.092Z,0.29
2023-05-10T13:08:03.791Z,0.33
2023-05-10T13:09:04.188Z,0.29
2023-05-10T13:10:04.156Z,0.32
2023-05-10T13:11:04.422Z,0.39
2023-05-10T13:12:04.721Z,0.34
2023-05-10T13:13:03.979Z,0.3
2023-05-10T13:16:03.885Z,0.46
2023-05-10T13:17:04.671Z,0.31
2023-05-10T13:18:04.736Z,0.71
2023-05-10T13:19:04.918Z,0.4
2023-05-10T13:20:04.164Z,0.33
2023-05-10T13:21:04.270Z,0.31
2023-05-10T13:22:04.298Z,0.42
2023-05-10T13:23:04.412Z,0.45
2023-05-10T13:27:04.499Z,0.29
2023-05-10T13:28:04.605Z,0.44
2023-05-10T13:29:04.000Z,0.61
2023-05-10T13:30:04.813Z,0.36
2023-05-10T13:34:03.616Z,0.34
2023-05-10T13:35:04.120Z,0.49
2023-05-10T13:36:04.204Z,0.58
2023-05-10T13:37:04.432Z,0.42
2023-05-10T13:38:04.621Z,0.59
2023-05-10T13:39:04.702Z,0.5
2023-05-10T13:40:04.226Z,0.48
2023-05-10T13:41:04.576Z,0.35
2023-05-10T13:42:04.772Z,0.43
2023-05-10T13:43:04.309Z,0.35
2023-05-10T13:44:04.555Z,0.38
2023-05-10T13:45:04.889Z,0.29
2023-05-10T13:47:03.964Z,0.67
2023-05-10T13:48:04.585Z,0.67
2023-05-10T13:50:04.832Z,0.57
2023-05-10T13:51:04.035Z,0.72
2023-05-10T13:53:04.850Z,0.85
2023-05-10T13:54:04.015Z,0.68
2023-05-10T13:56:04.384Z,1.27
2023-05-10T13:57:04.330Z,0.61
2023-05-10T14:01:04.223Z,0.96
2023-05-10T14:02:04.461Z,0.35
2023-05-10T14:03:04.876Z,0.46
2023-05-10T14:04:03.856Z,0.44
2023-05-10T14:05:04.092Z,0.48
2023-05-10T14:06:04.309Z,0.89
2023-05-10T14:07:04.691Z,0.93
2023-05-10T14:08:03.949Z,0.36
2023-05-10T14:09:04.074Z,0.23
2023-05-10T14:10:04.197Z,0.2
2023-05-10T14:11:04.093Z,0.4
2023-05-10T14:14:04.315Z,0.38
2023-05-10T14:15:03.594Z,0.22
2023-05-10T14:16:04.930Z,0.29
2023-05-10T14:18:04.089Z,0.3
2023-05-10T14:19:04.846Z,0.35
2023-05-10T14:20:04.454Z,0.44
2023-05-10T14:25:04.008Z,0.44
2023-05-10T14:26:04.444Z,0.41
2023-05-10T14:27:04.638Z,0.41
2023-05-10T14:28:04.207Z,0.36
2023-05-10T14:29:04.686Z,0.34
2023-05-10T14:30:04.825Z,0.38
2023-05-10T14:31:03.966Z,0.27
2023-05-10T14:32:04.310Z,0.35
2023-05-10T14:33:04.569Z,0.37
2023-05-10T14:34:04.689Z,0.4
2023-05-10T14:35:04.054Z,0.25
2023-05-10T14:37:04.343Z,0.3
2023-05-10T14:38:04.507Z,0.24
2023-05-10T14:39:04.808Z,0.34
2023-05-10T14:40:04.472Z,0.49
2023-05-10T14:41:04.642Z,0.23
2023-05-10T14:43:04.202Z,0.59
2023-05-10T14:44:04.225Z,0.33
2023-05-10T14:45:04.754Z,0.26
2023-05-10T14:46:04.697Z,0.57
2023-05-10T14:49:04.300Z,0.62
2023-05-10T14:50:04.632Z,0.48
2023-05-10T14:51:04.659Z,0.7
2023-05-10T14:52:04.076Z,0.55
2023-05-10T14:53:04.336Z,0.29
2023-05-10T14:54:04.696Z,0.59
2023-05-10T14:55:03.889Z,0.81
2023-05-10T14:56:04.160Z,0.59
2023-05-10T14:57:04.240Z,0.36
2023-05-10T14:58:04.451Z,0.41
2023-05-10T14:59:03.895Z,0.48
2023-05-10T15:00:03.907Z,0.46
2023-05-10T15:01:04.970Z,0.64
2023-05-10T15:02:03.876Z,0.46
2023-05-10T15:03:04.970Z,0.46
2023-05-10T15:04:05.063Z,0.94
2023-05-10T15:05:05.305Z,0.94
2023-05-10T15:06:04.328Z,0.8
2023-05-10T15:07:04.532Z,0.65
2023-05-10T15:08:04.827Z,0.61
2023-05-10T15:09:03.887Z,0.57
2023-05-10T15:10:04.260Z,0.65
2023-05-10T15:11:04.574Z,0.56
2023-05-10T15:12:04.864Z,0.64
2023-05-10T15:13:04.190Z,0.91
2023-05-10T15:14:04.410Z,0.38
2023-05-10T15:15:04.641Z,0.38
2023-05-10T15:20:03.733Z,0.71
2023-05-10T15:21:04.697Z,0.72
2023-05-10T15:22:03.810Z,0.84
2023-05-10T15:24:04.805Z,0.74
2023-05-10T15:25:03.787Z,0.46
2023-05-10T15:26:04.331Z,0.63
2023-05-10T15:27:04.557Z,0.85
2023-05-10T15:28:04.838Z,0.61
2023-05-10T15:32:04.081Z,0.61
2023-05-10T15:33:04.438Z,0.85
2023-05-10T15:35:04.030Z,1.17
2023-05-10T15:36:04.090Z,0.46
2023-05-10T15:37:04.480Z,0.58
2023-05-10T15:38:04.538Z,0.65
2023-05-10T15:39:04.944Z,1.01
2023-05-10T15:40:04.289Z,0.56
2023-05-10T15:41:04.566Z,0.58
2023-05-10T15:42:04.838Z,0.55
2023-05-10T15:43:04.161Z,0.57
2023-05-10T15:44:04.195Z,0.57
2023-05-10T15:45:04.670Z,0.75
2023-05-10T15:46:04.727Z,0.56
2023-05-10T15:47:02.943Z,0.56
2023-05-10T15:48:03.840Z,1.16
2023-05-10T15:49:04.252Z,0.88
2023-05-10T15:50:04.721Z,0.47
2023-05-10T15:51:04.106Z,0.39
2023-05-10T15:52:04.287Z,0.59
2023-05-10T15:53:04.700Z,0.51
2023-05-10T15:56:04.453Z,0.52
2023-05-10T15:57:04.566Z,0.6
2023-05-10T15:58:03.860Z,1.02
2023-05-10T15:59:04.289Z,0.84
2023-05-10T16:00:04.425Z,0.41
2023-05-10T16:01:04.178Z,0.94
2023-05-10T16:02:04.468Z,0.78
2023-05-10T16:03:04.828Z,1.06
2023-05-10T16:07:03.621Z,0.73
2023-05-10T16:08:04.646Z,0.68